Time;durP1;ratioP1;P1;durP2;ratioP2;P2;SDS_P1;SDS_P2;PMS_P1;PMS_P2;Temp;Humidity;BMP_temperature;BMP_pressure;BME280_temperature;BME280_humidity;BME280_pressure;Samples;Min_cycle;Max_cycle;Signal;HPM_P1;HPM_P2
2023/07/16 00:00:20;;;;;;;;;;;;;;;25.27;69.33;97145.44;625283;227;64952;-59
2023/07/16 00:02:52;;;;;;;;;;;;;;;25.25;68.33;97143.83;625288;226;45307;-60
2023/07/16 00:05:20;;;;;;;;;;;;;;;25.27;69.42;97143.55;625248;227;65023;-59
2023/07/16 00:07:47;;;;;;;;;;;;;;;25.26;69.96;97139.24;625265;225;67198;-59
2023/07/16 00:10:15;;;;;;;;;;;;;;;25.24;70.06;97136.86;625245;227;67049;-59
2023/07/16 00:12:42;;;;;;;;;;;;;;;25.24;69.97;97144.94;624975;226;65001;-60
2023/07/16 00:15:10;;;;;;;;;;;;;;;25.25;70.06;97143.03;623155;227;67258;-59
2023/07/16 00:17:37;;;;;;;;;;;;;;;25.24;69.94;97142.25;623153;227;67232;-59
2023/07/16 00:20:05;;;;;;;;;;;;;;;25.24;69.24;97141.45;623173;227;65096;-60
2023/07/16 00:22:33;;;;;;;;;;;;;;;25.24;69.61;97138.77;623145;227;67288;-60
2023/07/16 00:25:01;;;;;;;;;;;;;;;25.24;70.11;97139.55;623189;227;64902;-59
2023/07/16 00:27:28;;;;;;;;;;;;;;;25.23;70.14;97135.25;623171;227;64890;-59
2023/07/16 00:29:56;;;;;;;;;;;;;;;25.23;70.14;97132.56;623170;227;66991;-59
2023/07/16 00:32:23;;;;;;;;;;;;;;;25.24;70.23;97130.70;623171;227;64528;-59
2023/07/16 00:34:51;;;;;;;;;;;;;;;25.23;69.54;97132.56;623131;227;65097;-59
2023/07/16 00:37:18;;;;;;;;;;;;;;;25.23;70.42;97127.18;623187;227;67090;-60
2023/07/16 00:39:46;;;;;;;;;;;;;;;25.23;70.24;97127.18;623144;227;65990;-59
2023/07/16 00:42:13;;;;;;;;;;;;;;;25.24;69.73;97122.63;623154;227;62780;-59
2023/07/16 00:44:41;;;;;;;;;;;;;;;25.24;70.29;97123.42;623162;227;67069;-59
2023/07/16 00:47:09;;;;;;;;;;;;;;;25.21;67.58;97118.63;623146;227;66834;-60
2023/07/16 00:49:37;;;;;;;;;;;;;;;25.24;68.26;97122.63;623176;227;62754;-59
2023/07/16 00:52:05;;;;;;;;;;;;;;;25.25;67.34;97118.83;623160;227;67241;-60
2023/07/16 00:54:33;;;;;;;;;;;;;;;25.27;67.39;97123.92;623154;227;67117;-59
2023/07/16 00:57:01;;;;;;;;;;;;;;;25.28;67.04;97122.82;623189;227;65000;-60
2023/07/16 00:59:28;;;;;;;;;;;;;;;25.27;67.35;97116.65;623167;227;66730;-60
2023/07/16 01:01:57;;;;;;;;;;;;;;;25.28;69.29;97120.13;623204;226;44232;-59
2023/07/16 01:04:25;;;;;;;;;;;;;;;25.26;68.21;97112.34;623167;227;61307;-60
2023/07/16 01:06:54;;;;;;;;;;;;;;;25.25;69.36;97124.20;623162;227;67196;-59
2023/07/16 01:09:22;;;;;;;;;;;;;;;25.24;70.02;97118.03;623115;226;67001;-59
2023/07/16 01:11:51;;;;;;;;;;;;;;;25.23;70.10;97112.94;623154;227;65386;-60
2023/07/16 01:14:19;;;;;;;;;;;;;;;25.23;70.51;97118.32;623611;227;67372;-59
2023/07/16 01:16:47;;;;;;;;;;;;;;;25.23;71.59;97119.11;623802;227;67750;-60
2023/07/16 01:19:14;;;;;;;;;;;;;;;25.23;73.09;97121.02;623777;227;64898;-59
2023/07/16 01:21:49;;;;;;;;;;;;;;;25.21;72.43;97115.94;623784;227;67034;-59
2023/07/16 01:24:24;;;;;;;;;;;;;;;25.20;71.34;97116.22;623766;227;64783;-59
2023/07/16 01:26:53;;;;;;;;;;;;;;;25.21;70.29;97120.53;618700;226;64881;-59
2023/07/16 01:29:23;;;;;;;;;;;;;;;25.21;70.47;97115.16;623498;226;67223;-60
2023/07/16 01:31:51;;;;;;;;;;;;;;;25.21;70.41;97115.16;623829;227;66853;-60
2023/07/16 01:34:19;;;;;;;;;;;;;;;25.22;70.46;97111.36;623756;227;62794;-60
2023/07/16 01:36:47;;;;;;;;;;;;;;;25.21;70.52;97109.77;623777;227;64938;-60
2023/07/16 01:39:15;;;;;;;;;;;;;;;25.22;73.05;97100.59;623765;227;65479;-60
2023/07/16 01:41:42;;;;;;;;;;;;;;;25.21;73.65;97104.39;623727;227;65706;-60
2023/07/16 01:44:10;;;;;;;;;;;;;;;25.19;72.41;97101.20;623803;227;67008;-60
2023/07/16 01:46:37;;;;;;;;;;;;;;;25.18;71.02;97102.27;623794;227;64443;-60
2023/07/16 01:49:05;;;;;;;;;;;;;;;25.18;70.74;97099.58;623782;227;62732;-60
2023/07/16 01:51:32;;;;;;;;;;;;;;;25.19;71.05;97096.61;623752;227;64842;-60
2023/07/16 01:54:00;;;;;;;;;;;;;;;25.19;70.74;97110.05;623767;227;67540;-60
2023/07/16 01:56:28;;;;;;;;;;;;;;;25.18;71.10;97105.78;623816;227;62695;-60
2023/07/16 01:58:55;;;;;;;;;;;;;;;25.21;74.13;97105.19;623752;227;65540;-60
2023/07/16 02:01:23;;;;;;;;;;;;;;;25.21;74.85;97115.16;623791;227;67331;-62
2023/07/16 02:03:51;;;;;;;;;;;;;;;25.19;74.67;97107.36;623792;227;62784;-62
2023/07/16 02:06:18;;;;;;;;;;;;;;;25.17;72.03;97108.75;623769;227;67202;-62
2023/07/16 02:08:46;;;;;;;;;;;;;;;25.17;71.12;97111.44;623807;227;64855;-62
2023/07/16 02:11:13;;;;;;;;;;;;;;;25.18;73.46;97104.95;623814;227;65086;-63
2023/07/16 02:13:41;;;;;;;;;;;;;;;25.17;73.82;97104.16;623736;227;66736;-60
2023/07/16 02:16:08;;;;;;;;;;;;;;;25.17;73.51;97108.75;623781;227;64671;-60
2023/07/16 02:18:36;;;;;;;;;;;;;;;25.18;74.13;97104.95;623729;227;62660;-60
2023/07/16 02:21:03;;;;;;;;;;;;;;;25.16;73.87;97102.58;623824;227;65281;-60
2023/07/16 02:23:32;;;;;;;;;;;;;;;25.16;74.02;97112.55;623736;227;67927;-60
2023/07/16 02:25:59;;;;;;;;;;;;;;;25.15;71.93;97117.10;623744;227;62701;-60
2023/07/16 02:28:27;;;;;;;;;;;;;;;25.14;71.17;97112.80;623752;227;66998;-60
2023/07/16 02:30:55;;;;;;;;;;;;;;;25.15;71.04;97111.72;623766;227;65511;-60
2023/07/16 02:33:22;;;;;;;;;;;;;;;25.17;72.46;97111.44;623774;227;62704;-60
2023/07/16 02:35:51;;;;;;;;;;;;;;;25.16;72.97;97104.48;623794;227;64812;-63
2023/07/16 02:38:19;;;;;;;;;;;;;;;25.17;73.87;97111.44;623775;227;67026;-60
2023/07/16 02:40:49;;;;;;;;;;;;;;;25.17;73.98;97111.44;623771;227;65407;-60
2023/07/16 02:43:16;;;;;;;;;;;;;;;25.15;74.23;97105.55;623698;227;67211;-60
2023/07/16 02:45:45;;;;;;;;;;;;;;;25.14;74.12;97107.42;623756;227;67422;-60
2023/07/16 02:48:13;;;;;;;;;;;;;;;25.14;74.39;97107.42;623783;227;62642;-60
2023/07/16 02:50:40;;;;;;;;;;;;;;;25.14;74.43;97107.42;623751;227;64983;-60
2023/07/16 02:53:08;;;;;;;;;;;;;;;25.14;74.31;97103.94;623757;227;64933;-60
2023/07/16 02:55:36;;;;;;;;;;;;;;;25.12;73.85;97100.73;623760;227;65240;-60
2023/07/16 02:58:04;;;;;;;;;;;;;;;25.12;73.40;97109.59;623745;226;68014;-60
2023/07/16 03:00:32;;;;;;;;;;;;;;;25.12;71.98;97106.91;623836;227;64709;-60
2023/07/16 03:02:59;;;;;;;;;;;;;;;25.14;73.86;97106.63;623733;227;65025;-60
2023/07/16 03:05:30;;;;;;;;;;;;;;;25.13;74.45;97111.22;623721;227;67223;-60
2023/07/16 03:07:58;;;;;;;;;;;;;;;25.13;74.44;97108.52;623736;227;64782;-60
2023/07/16 03:10:26;;;;;;;;;;;;;;;25.13;74.36;97115.80;623756;227;65008;-60
2023/07/16 03:12:54;;;;;;;;;;;;;;;25.12;72.93;97116.88;624082;227;67171;-60
2023/07/16 03:15:22;;;;;;;;;;;;;;;25.13;73.95;97115.80;625259;227;64903;-60
2023/07/16 03:17:50;;;;;;;;;;;;;;;25.13;73.96;97115.80;625239;227;62855;-60
2023/07/16 03:20:17;;;;;;;;;;;;;;;25.13;74.39;97118.48;625208;227;67209;-60
2023/07/16 03:22:45;;;;;;;;;;;;;;;25.12;74.39;97123.05;625267;227;66684;-60
2023/07/16 03:25:12;;;;;;;;;;;;;;;25.11;74.24;97126.84;625261;227;62905;-60
2023/07/16 03:27:40;;;;;;;;;;;;;;;25.11;74.46;97116.08;625307;227;66764;-60
2023/07/16 03:30:09;;;;;;;;;;;;;;;25.10;73.78;97125.25;625265;227;66686;-60
2023/07/16 03:32:37;;;;;;;;;;;;;;;25.11;74.19;97120.67;620140;227;66634;-60
2023/07/16 03:35:05;;;;;;;;;;;;;;;25.10;74.28;97119.87;625243;227;64720;-60
2023/07/16 03:37:32;;;;;;;;;;;;;;;25.11;74.75;97124.15;625305;227;66871;-60
2023/07/16 03:40:02;;;;;;;;;;;;;;;25.11;74.24;97126.05;625332;227;62550;-60
2023/07/16 03:42:30;;;;;;;;;;;;;;;25.11;75.07;97131.42;624875;226;67125;-59
2023/07/16 03:44:57;;;;;;;;;;;;;;;25.11;75.24;97126.05;625278;227;64567;-60
2023/07/16 03:47:25;;;;;;;;;;;;;;;25.10;74.50;97127.12;625257;227;63701;-59
2023/07/16 03:49:53;;;;;;;;;;;;;;;25.08;73.44;97130.12;625281;227;67324;-60
2023/07/16 03:52:20;;;;;;;;;;;;;;;25.09;73.50;97129.02;625306;227;67032;-59
2023/07/16 03:54:48;;;;;;;;;;;;;;;25.10;73.92;97137.88;625233;227;64898;-60
2023/07/16 03:57:15;;;;;;;;;;;;;;;25.10;73.48;97135.19;625244;227;67187;-60
2023/07/16 03:59:43;;;;;;;;;;;;;;;25.09;73.52;97133.60;625252;227;67122;-59
2023/07/16 04:02:10;;;;;;;;;;;;;;;25.09;73.42;97138.98;625262;227;65078;-60
2023/07/16 04:04:38;;;;;;;;;;;;;;;25.09;73.51;97133.60;625314;227;67182;-59
2023/07/16 04:07:06;;;;;;;;;;;;;;;25.10;73.62;97143.25;625289;227;64668;-60
2023/07/16 04:09:33;;;;;;;;;;;;;;;25.08;74.04;97146.25;625218;227;65039;-60
2023/07/16 04:12:01;;;;;;;;;;;;;;;25.08;73.68;97148.94;625268;227;67065;-60
2023/07/16 04:14:28;;;;;;;;;;;;;;;25.09;74.66;97141.67;624016;226;66807;-59
2023/07/16 04:16:56;;;;;;;;;;;;;;;25.07;74.31;97141.16;623872;227;63111;-59
2023/07/16 04:19:24;;;;;;;;;;;;;;;25.08;74.29;97148.16;623879;227;67204;-60
2023/07/16 04:21:51;;;;;;;;;;;;;;;25.08;74.44;97150.84;623825;227;67343;-60
2023/07/16 04:24:19;;;;;;;;;;;;;;;25.08;73.85;97148.16;623840;227;65019;-60
2023/07/16 04:26:46;;;;;;;;;;;;;;;25.08;74.33;97148.16;623800;227;65839;-60
2023/07/16 04:29:14;;;;;;;;;;;;;;;25.07;74.53;97151.91;623871;227;66812;-62
2023/07/16 04:31:41;;;;;;;;;;;;;;;25.08;74.88;97153.53;623900;227;62971;-62
2023/07/16 04:34:09;;;;;;;;;;;;;;;25.08;74.17;97153.53;623836;227;67210;-62
2023/07/16 04:36:36;;;;;;;;;;;;;;;25.07;74.35;97150.02;623842;227;67137;-62
2023/07/16 04:39:04;;;;;;;;;;;;;;;25.07;74.58;97157.29;623869;227;65071;-62
2023/07/16 04:41:32;;;;;;;;;;;;;;;25.06;74.62;97150.33;623843;227;66917;-62
2023/07/16 04:43:59;;;;;;;;;;;;;;;25.07;74.65;97154.60;623914;227;67028;-62
2023/07/16 04:46:27;;;;;;;;;;;;;;;25.06;74.62;97153.02;623838;227;62992;-62
2023/07/16 04:48:54;;;;;;;;;;;;;;;25.07;74.59;97157.29;623851;227;65175;-62
2023/07/16 04:51:22;;;;;;;;;;;;;;;25.07;75.08;97157.29;623817;227;67101;-62
2023/07/16 04:53:49;;;;;;;;;;;;;;;25.07;75.52;97162.67;623859;227;65009;-62
2023/07/16 04:56:17;;;;;;;;;;;;;;;25.06;74.98;97153.81;623874;227;67195;-62
2023/07/16 04:58:44;;;;;;;;;;;;;;;25.06;74.52;97161.08;623860;227;66885;-62
2023/07/16 05:01:12;;;;;;;;;;;;;;;25.07;76.12;97157.29;623856;227;65027;-63
2023/07/16 05:03:39;;;;;;;;;;;;;;;25.06;75.36;97161.08;623831;227;67043;-62
2023/07/16 05:06:07;;;;;;;;;;;;;;;25.06;74.70;97166.45;623879;227;67036;-62
2023/07/16 05:08:34;;;;;;;;;;;;;;;25.06;74.39;97161.88;623892;227;65005;-62
2023/07/16 05:11:02;;;;;;;;;;;;;;;25.07;74.45;97165.36;623839;227;67171;-62
2023/07/16 05:13:30;;;;;;;;;;;;;;;25.06;73.72;97164.56;623825;227;64922;-62
2023/07/16 05:15:57;;;;;;;;;;;;;;;25.07;72.74;97173.42;623938;227;62911;-62
2023/07/16 05:18:25;;;;;;;;;;;;;;;25.07;72.81;97173.42;623861;227;67170;-62
2023/07/16 05:20:53;;;;;;;;;;;;;;;25.07;72.94;97174.22;623933;227;65032;-62
2023/07/16 05:23:20;;;;;;;;;;;;;;;25.09;74.63;97173.94;623929;225;62995;-62
2023/07/16 05:25:48;;;;;;;;;;;;;;;25.10;75.20;97172.83;623910;227;67301;-62
2023/07/16 05:28:17;;;;;;;;;;;;;;;25.09;76.17;97173.94;623923;227;66799;-62
2023/07/16 05:30:44;;;;;;;;;;;;;;;25.09;76.02;97177.42;623905;227;63785;-62
2023/07/16 05:33:12;;;;;;;;;;;;;;;25.09;75.80;97182.00;623812;227;67123;-59
2023/07/16 05:35:42;;;;;;;;;;;;;;;25.08;75.53;97185.80;623937;227;67300;-59
2023/07/16 05:38:09;;;;;;;;;;;;;;;25.08;75.70;97183.90;623865;227;65130;-60
2023/07/16 05:40:37;;;;;;;;;;;;;;;25.08;75.51;97183.90;623925;227;67174;-60
2023/07/16 05:43:04;;;;;;;;;;;;;;;25.09;76.24;97182.00;623815;227;64947;-60
2023/07/16 05:45:32;;;;;;;;;;;;;;;25.08;75.80;97183.11;623885;227;62856;-60
2023/07/16 05:47:59;;;;;;;;;;;;;;;25.06;74.33;97183.39;623862;227;65829;-60
2023/07/16 05:50:26;;;;;;;;;;;;;;;25.06;73.92;97183.39;623927;227;67151;-60
2023/07/16 05:52:54;;;;;;;;;;;;;;;25.05;72.75;97181.01;623953;227;62709;-60
2023/07/16 05:55:21;;;;;;;;;;;;;;;25.05;71.72;97181.80;623919;227;66904;-60
2023/07/16 05:57:49;;;;;;;;;;;;;;;25.07;71.98;97190.35;623814;227;66853;-60
2023/07/16 06:00:16;;;;;;;;;;;;;;;25.07;71.70;97184.18;623728;227;65138;-62
2023/07/16 06:02:44;;;;;;;;;;;;;;;25.08;72.25;97185.80;623904;227;65287;-62
2023/07/16 06:05:11;;;;;;;;;;;;;;;25.07;71.05;97178.80;623912;227;66987;-62
2023/07/16 06:07:39;;;;;;;;;;;;;;;25.08;70.48;97188.48;623881;227;65074;-62
2023/07/16 06:10:07;;;;;;;;;;;;;;;25.08;68.72;97188.48;627614;224;67117;-62
2023/07/16 06:12:34;;;;;;;;;;;;;;;25.09;71.22;97179.31;629955;225;67032;-63
2023/07/16 06:15:02;;;;;;;;;;;;;;;25.10;70.41;97183.59;626513;226;65093;-62
2023/07/16 06:17:31;;;;;;;;;;;;;;;25.11;69.60;97183.31;626590;226;46855;-62
2023/07/16 06:19:59;;;;;;;;;;;;;;;25.12;68.26;97181.41;626531;226;66837;-62
2023/07/16 06:22:26;;;;;;;;;;;;;;;25.14;67.79;97181.92;626546;226;65100;-62
2023/07/16 06:24:54;;;;;;;;;;;;;;;25.15;67.66;97178.16;626468;226;64856;-62
2023/07/16 06:27:21;;;;;;;;;;;;;;;25.14;68.65;97174.66;626544;226;66973;-62
2023/07/16 06:29:49;;;;;;;;;;;;;;;25.15;68.38;97176.27;626518;226;65180;-63
2023/07/16 06:32:16;;;;;;;;;;;;;;;25.16;68.49;97177.09;626431;226;67140;-62
2023/07/16 06:34:44;;;;;;;;;;;;;;;25.17;68.49;97178.67;626316;226;66989;-62
2023/07/16 06:37:11;;;;;;;;;;;;;;;25.17;68.64;97173.30;626557;226;62887;-62
2023/07/16 06:39:39;;;;;;;;;;;;;;;25.17;68.59;97173.30;626495;226;67209;-62
2023/07/16 06:42:06;;;;;;;;;;;;;;;25.19;67.49;97173.81;626534;226;66767;-62
2023/07/16 06:44:34;;;;;;;;;;;;;;;25.19;68.35;97169.22;626521;226;65036;-62
2023/07/16 06:47:01;;;;;;;;;;;;;;;25.20;67.86;97172.70;626499;226;67024;-60
2023/07/16 06:49:31;;;;;;;;;;;;;;;25.21;68.13;97171.63;626513;226;65426;-60
2023/07/16 06:52:00;;;;;;;;;;;;;;;25.22;67.74;97175.91;626467;226;62958;-60
2023/07/16 06:54:28;;;;;;;;;;;;;;;25.22;67.86;97170.53;626527;226;67145;-60
2023/07/16 06:56:56;;;;;;;;;;;;;;;25.23;67.59;97172.11;626499;225;65810;-62
2023/07/16 06:59:23;;;;;;;;;;;;;;;25.22;67.89;97165.94;626511;226;64986;-62
2023/07/16 07:01:51;;;;;;;;;;;;;;;25.22;67.87;97165.94;626544;226;64962;-60
2023/07/16 07:04:18;;;;;;;;;;;;;;;25.23;68.37;97162.14;626496;226;67040;-60
2023/07/16 07:06:46;;;;;;;;;;;;;;;25.23;68.29;97161.35;626484;226;65015;-60
2023/07/16 07:09:13;;;;;;;;;;;;;;;25.25;68.40;97161.86;626504;226;67003;-62
2023/07/16 07:11:41;;;;;;;;;;;;;;;25.26;67.84;97158.07;626509;226;67104;-62
2023/07/16 07:14:08;;;;;;;;;;;;;;;25.25;67.75;97165.34;629355;225;65019;-62
2023/07/16 07:16:35;;;;;;;;;;;;;;;25.25;68.02;97164.55;630396;225;67171;-62
2023/07/16 07:19:03;;;;;;;;;;;;;;;25.26;67.84;97166.14;630364;225;67032;-62
2023/07/16 07:21:30;;;;;;;;;;;;;;;25.25;67.75;97164.55;630381;225;65305;-62
2023/07/16 07:23:58;;;;;;;;;;;;;;;25.25;67.83;97162.66;630313;225;67256;-62
2023/07/16 07:26:26;;;;;;;;;;;;;;;25.27;68.09;97159.69;630325;225;67014;-62
2023/07/16 07:28:53;;;;;;;;;;;;;;;25.28;67.86;97161.27;630414;225;62883;-62
2023/07/16 07:31:21;;;;;;;;;;;;;;;25.27;67.79;97159.69;630399;225;66683;-62
2023/07/16 07:33:48;;;;;;;;;;;;;;;25.28;67.60;97155.89;630361;225;64723;-62
2023/07/16 07:36:16;;;;;;;;;;;;;;;25.29;67.66;97164.75;630396;225;62902;-62
2023/07/16 07:38:43;;;;;;;;;;;;;;;25.29;67.34;97160.20;630378;225;66681;-62
2023/07/16 07:41:11;;;;;;;;;;;;;;;25.30;66.77;97161.78;630441;225;64705;-62
2023/07/16 07:43:38;;;;;;;;;;;;;;;25.32;66.03;97161.47;630397;225;62896;-62
2023/07/16 07:46:06;;;;;;;;;;;;;;;25.32;66.38;97156.09;630397;225;64880;-60
2023/07/16 07:48:33;;;;;;;;;;;;;;;25.31;66.78;97157.98;630352;225;64717;-60
2023/07/16 07:51:01;;;;;;;;;;;;;;;25.30;66.10;97156.40;624595;225;62727;-62
2023/07/16 07:53:28;;;;;;;;;;;;;;;25.33;65.93;97157.70;630397;225;64710;-62
2023/07/16 07:55:57;;;;;;;;;;;;;;;25.31;66.21;97152.61;630344;225;44437;-62
2023/07/16 07:58:25;;;;;;;;;;;;;;;25.34;65.79;97151.22;630386;225;63070;-62
2023/07/16 08:00:53;;;;;;;;;;;;;;;25.34;65.51;97160.08;630331;225;64932;-62
2023/07/16 08:03:21;;;;;;;;;;;;;;;25.33;65.85;97153.11;630344;225;67349;-62
2023/07/16 08:05:51;;;;;;;;;;;;;;;25.34;65.88;97159.29;630398;225;65025;-62
2023/07/16 08:08:19;;;;;;;;;;;;;;;25.32;65.82;97162.29;630309;225;67215;-63
2023/07/16 08:10:46;;;;;;;;;;;;;;;25.33;66.20;97158.50;630375;225;67052;-63
2023/07/16 08:13:14;;;;;;;;;;;;;;;25.33;66.01;97155.02;630313;225;62879;-63
2023/07/16 08:15:41;;;;;;;;;;;;;;;25.34;66.01;97156.59;630411;225;65841;-63
2023/07/16 08:18:09;;;;;;;;;;;;;;;25.34;66.04;97168.16;630394;225;66993;-63
2023/07/16 08:20:37;;;;;;;;;;;;;;;25.35;66.51;97163.59;630467;225;65092;-63
2023/07/16 08:23:04;;;;;;;;;;;;;;;25.34;66.42;97162.77;630399;225;64562;-63
2023/07/16 08:25:32;;;;;;;;;;;;;;;25.34;66.27;97160.08;630362;225;64822;-63
2023/07/16 08:27:59;;;;;;;;;;;;;;;25.35;66.56;97163.59;630331;225;64982;-63
2023/07/16 08:30:27;;;;;;;;;;;;;;;25.35;66.28;97161.70;630388;225;67372;-63
2023/07/16 08:32:54;;;;;;;;;;;;;;;25.36;66.64;97160.59;626176;224;64876;-63
2023/07/16 08:35:22;;;;;;;;;;;;;;;25.37;66.87;97156.83;617487;227;65126;-63
2023/07/16 08:37:49;;;;;;;;;;;;;;;25.40;67.21;97160.79;616636;230;67203;-63
2023/07/16 08:40:17;;;;;;;;;;;;;;;25.41;67.15;97163.20;616471;229;64904;-64
2023/07/16 08:42:49;;;;;;;;;;;;;;;25.40;66.90;97161.61;615450;230;62907;-63
2023/07/16 08:45:16;;;;;;;;;;;;;;;25.41;67.20;97162.41;615780;230;64708;-63
2023/07/16 08:47:44;;;;;;;;;;;;;;;25.40;67.08;97166.99;615948;230;64732;-63
2023/07/16 08:50:12;;;;;;;;;;;;;;;25.41;67.12;97162.41;615974;230;62759;-64
2023/07/16 08:52:40;;;;;;;;;;;;;;;25.41;67.41;97163.20;615980;230;64787;-63
2023/07/16 08:55:07;;;;;;;;;;;;;;;25.46;67.40;97160.42;615899;229;66834;-63
2023/07/16 08:57:36;;;;;;;;;;;;;;;25.48;67.44;97165.48;616649;229;65042;-63
2023/07/16 09:00:05;;;;;;;;;;;;;;;25.45;67.33;97158.84;616685;229;66851;-63
2023/07/16 09:02:34;;;;;;;;;;;;;;;25.50;67.31;97159.83;616228;229;66830;-63
2023/07/16 09:05:02;;;;;;;;;;;;;;;25.50;67.22;97151.75;616669;230;64040;-60
2023/07/16 09:07:29;;;;;;;;;;;;;;;25.51;67.06;97164.09;616454;226;66885;-60
2023/07/16 09:10:00;;;;;;;;;;;;;;;25.51;66.86;97154.16;616573;229;66472;-63
2023/07/16 09:12:29;;;;;;;;;;;;;;;25.51;66.78;97156.84;616670;229;65001;-63
2023/07/16 09:14:57;;;;;;;;;;;;;;;25.50;66.80;97160.61;616142;227;64477;-63
2023/07/16 09:17:25;;;;;;;;;;;;;;;25.49;66.71;97153.65;616121;230;64916;-64
2023/07/16 09:19:52;;;;;;;;;;;;;;;25.50;66.75;97149.06;616075;230;63043;-63
2023/07/16 09:22:21;;;;;;;;;;;;;;;25.50;66.98;97147.16;616129;230;64618;-63
2023/07/16 09:24:48;;;;;;;;;;;;;;;25.52;66.93;97157.64;616173;230;64704;-63
2023/07/16 09:27:15;;;;;;;;;;;;;;;25.52;66.89;97149.56;616126;230;63113;-63
2023/07/16 09:29:43;;;;;;;;;;;;;;;25.53;66.86;97153.84;616114;230;66831;-63
2023/07/16 09:32:10;;;;;;;;;;;;;;;25.53;66.84;97156.53;616124;230;66794;-63
2023/07/16 09:34:38;;;;;;;;;;;;;;;25.51;66.80;97148.78;616087;230;64993;-63
2023/07/16 09:37:06;;;;;;;;;;;;;;;25.52;66.96;97152.26;616127;230;64507;-63
2023/07/16 09:39:35;;;;;;;;;;;;;;;25.54;66.96;97144.70;616147;230;66673;-63
2023/07/16 09:42:03;;;;;;;;;;;;;;;25.54;66.94;97147.39;616088;230;65042;-63
2023/07/16 09:44:31;;;;;;;;;;;;;;;25.55;67.08;97147.07;616070;230;67299;-63
2023/07/16 09:46:58;;;;;;;;;;;;;;;25.55;67.15;97147.07;616124;230;66924;-63
2023/07/16 09:49:27;;;;;;;;;;;;;;;25.56;67.22;97147.86;616137;230;62633;-63
2023/07/16 09:51:57;;;;;;;;;;;;;;;25.54;67.15;97142.80;616109;230;64617;-63
2023/07/16 09:54:27;;;;;;;;;;;;;;;25.55;67.23;97143.59;616127;230;66842;-63
2023/07/16 09:56:58;;;;;;;;;;;;;;;25.56;67.02;97142.48;616097;230;65101;-63
2023/07/16 09:59:26;;;;;;;;;;;;;;;25.56;67.19;97142.48;616025;230;66791;-61
2023/07/16 10:01:56;;;;;;;;;;;;;;;25.54;66.95;97142.00;616133;230;66763;-60
2023/07/16 10:04:24;;;;;;;;;;;;;;;25.55;67.01;97135.52;616146;230;65119;-60
2023/07/16 10:06:53;;;;;;;;;;;;;;;25.56;66.93;97142.48;610621;229;66889;-61
2023/07/16 10:09:37;;;;;;;;;;;;;;;25.58;66.78;97137.61;615788;230;64581;-61
2023/07/16 10:12:14;;;;;;;;;;;;;;;25.57;66.89;97128.74;616073;230;64828;-60
2023/07/16 10:14:42;;;;;;;;;;;;;;;25.60;66.69;97132.73;616075;230;66868;-60
2023/07/16 10:17:13;;;;;;;;;;;;;;;25.60;66.60;97135.42;616078;230;66820;-59
2023/07/16 10:19:51;;;;;;;;;;;;;;;25.59;66.78;97131.12;616142;230;65042;-60
2023/07/16 10:22:19;;;;;;;;;;;;;;;25.57;66.62;97133.33;616095;227;66870;-60
2023/07/16 10:24:48;;;;;;;;;;;;;;;25.59;66.41;97133.81;616111;230;64424;-60
2023/07/16 10:27:17;;;;;;;;;;;;;;;25.57;66.42;97127.95;616002;230;62888;-60
2023/07/16 10:29:45;;;;;;;;;;;;;;;25.56;66.69;97127.13;615787;230;67115;-60
2023/07/16 10:32:12;;;;;;;;;;;;;;;25.59;66.56;97125.73;616131;230;67062;-60
2023/07/16 10:34:40;;;;;;;;;;;;;;;25.61;66.54;97128.94;616078;230;65030;-60
2023/07/16 10:37:08;;;;;;;;;;;;;;;25.60;66.55;97125.45;616052;230;66929;-60
2023/07/16 10:39:35;;;;;;;;;;;;;;;25.59;66.56;97126.56;616087;230;64712;-60
2023/07/16 10:42:03;;;;;;;;;;;;;;;25.59;66.81;97128.43;616106;230;63928;-60
2023/07/16 10:44:30;;;;;;;;;;;;;;;25.58;66.64;97122.25;616062;230;66712;-60
2023/07/16 10:46:58;;;;;;;;;;;;;;;25.59;66.97;97123.05;616157;230;66777;-60
2023/07/16 10:49:28;;;;;;;;;;;;;;;25.59;66.96;97125.73;616096;230;64946;-60
2023/07/16 10:51:56;;;;;;;;;;;;;;;25.59;67.05;97126.56;616098;230;64624;-59
2023/07/16 10:54:24;;;;;;;;;;;;;;;25.59;67.20;97125.73;616093;230;64720;-60
2023/07/16 10:56:51;;;;;;;;;;;;;;;25.58;67.09;97126.84;616043;230;65021;-59
2023/07/16 10:59:19;;;;;;;;;;;;;;;25.60;66.94;97127.35;616165;230;66925;-59
2023/07/16 11:01:47;;;;;;;;;;;;;;;25.60;66.94;97116.59;616111;230;66616;-59
2023/07/16 11:04:14;;;;;;;;;;;;;;;25.60;66.61;97117.38;616065;230;65324;-60
2023/07/16 11:06:42;;;;;;;;;;;;;;;25.60;66.65;97113.89;616123;230;66881;-59
2023/07/16 11:09:10;;;;;;;;;;;;;;;25.60;66.54;97112.00;616125;230;65350;-60
2023/07/16 11:11:38;;;;;;;;;;;;;;;25.59;66.56;97114.97;616135;230;62884;-60
2023/07/16 11:14:05;;;;;;;;;;;;;;;25.60;66.30;97112.00;616097;230;64652;-59
2023/07/16 11:16:36;;;;;;;;;;;;;;;25.59;66.56;97110.41;616106;230;64641;-60
2023/07/16 11:19:07;;;;;;;;;;;;;;;25.59;66.60;97112.28;616091;230;63057;-60
2023/07/16 11:21:35;;;;;;;;;;;;;;;25.60;66.30;97103.13;616073;227;66824;-60
2023/07/16 11:24:09;;;;;;;;;;;;;;;25.62;66.23;97103.64;616159;230;66817;-59
2023/07/16 11:26:36;;;;;;;;;;;;;;;25.61;66.35;97102.02;616120;230;65093;-59
2023/07/16 11:29:05;;;;;;;;;;;;;;;25.63;66.19;97105.22;616083;230;66759;-61
2023/07/16 11:31:34;;;;;;;;;;;;;;;25.63;66.20;97111.39;615783;230;66783;-62
2023/07/16 11:34:01;;;;;;;;;;;;;;;25.62;66.22;97101.73;615939;230;65114;-62
2023/07/16 11:36:29;;;;;;;;;;;;;;;25.62;66.10;97100.95;616123;230;66851;-62
2023/07/16 11:38:57;;;;;;;;;;;;;;;25.63;66.34;97097.15;616202;230;66272;-62
2023/07/16 11:41:24;;;;;;;;;;;;;;;25.62;66.14;97099.05;616125;230;64931;-62
2023/07/16 11:43:52;;;;;;;;;;;;;;;25.61;65.83;97097.44;616096;230;64460;-62
2023/07/16 11:46:19;;;;;;;;;;;;;;;25.64;65.95;97102.22;616045;230;66755;-62
2023/07/16 11:48:47;;;;;;;;;;;;;;;25.66;65.41;97100.03;616125;230;64859;-62
2023/07/16 11:51:14;;;;;;;;;;;;;;;25.67;64.96;97108.89;616178;230;66498;-62
2023/07/16 11:53:42;;;;;;;;;;;;;;;25.66;64.79;97104.62;616175;230;66509;-62
2023/07/16 11:56:09;;;;;;;;;;;;;;;25.66;64.55;97101.93;616103;230;65086;-62
2023/07/16 11:58:36;;;;;;;;;;;;;;;25.66;64.40;97097.34;616166;230;66708;-62
2023/07/16 12:01:04;;;;;;;;;;;;;;;25.65;64.60;97103.03;616117;230;66809;-62
2023/07/16 12:03:31;;;;;;;;;;;;;;;25.65;64.29;97105.73;616188;230;64968;-62
2023/07/16 12:05:59;;;;;;;;;;;;;;;25.66;64.23;97105.41;616146;227;66694;-62
2023/07/16 12:08:26;;;;;;;;;;;;;;;25.66;64.35;97104.62;616127;230;66815;-62
2023/07/16 12:10:54;;;;;;;;;;;;;;;25.66;64.67;97107.31;616071;230;63012;-62
2023/07/16 12:13:21;;;;;;;;;;;;;;;25.64;64.72;97096.83;616080;230;64950;-60
2023/07/16 12:15:50;;;;;;;;;;;;;;;25.64;64.67;97101.42;616179;230;66849;-60
2023/07/16 12:18:18;;;;;;;;;;;;;;;25.66;64.54;97101.93;616148;230;65103;-60
2023/07/16 12:20:45;;;;;;;;;;;;;;;25.66;64.47;97101.93;616124;230;66900;-60
2023/07/16 12:23:12;;;;;;;;;;;;;;;25.67;64.23;97106.20;616075;230;64524;-60
2023/07/16 12:25:40;;;;;;;;;;;;;;;25.67;64.07;97106.20;616121;230;63020;-60
2023/07/16 12:28:07;;;;;;;;;;;;;;;25.68;64.21;97099.74;616201;230;66727;-60
2023/07/16 12:30:35;;;;;;;;;;;;;;;25.69;63.85;97102.12;616101;230;64642;-60
2023/07/16 12:33:03;;;;;;;;;;;;;;;25.70;63.66;97105.63;616121;230;62972;-62
2023/07/16 12:35:31;;;;;;;;;;;;;;;25.71;63.41;97101.83;616101;230;64550;-62
2023/07/16 12:37:59;;;;;;;;;;;;;;;25.68;63.50;97102.44;616097;230;66808;-62
2023/07/16 12:40:26;;;;;;;;;;;;;;;25.68;63.35;97105.91;616180;230;64994;-62
2023/07/16 12:42:54;;;;;;;;;;;;;;;25.69;63.48;97104.02;616126;230;67035;-62
2023/07/16 12:45:22;;;;;;;;;;;;;;;25.69;63.29;97104.81;616132;230;66818;-62
2023/07/16 12:47:49;;;;;;;;;;;;;;;25.69;63.32;97104.81;616126;230;62876;-62
2023/07/16 12:50:17;;;;;;;;;;;;;;;25.68;63.32;97102.44;616081;230;66687;-64